Cornish, ME (04020)

1:45 PM EST on December 09, 2016 (GMT -0500)
Sebago Road | | Change Station

Elev 475 ft 43.88 °N, 70.78 °W | Updated 36 seconds ago

Partly Cloudy
Partly Cloudy
31.1 °F
Feels Like 25 °F
N
6.8
Wind Variable Wind from WSW

Today
High -- | Low -- °F
--% Chance of Precip.
Yesterday
High -- | Low -- °F
Precip. -- in
Pressure 29.91 in
Visibility 10.0 miles
Clouds Few 3800 ft
Windchill 25 °F
Dew Point 12 °F
Humidity 44%
Rainfall 0.00 in
Snow Depth Not available.
7:05 AM 4:05 PM
Waxing Gibbous, 76% visible
METAR KIZG 091754Z AUTO 30009G21KT 10SM FEW038 M02/M13 A2989 RMK AO2 SLP128 T10221128 11017 21028 52004
Pressure 29.91 in
Visibility 10.0 miles
Clouds Few 3800 ft
Windchill 25 °F
Dew Point 12 °F
Humidity 44%
Rainfall 0.00 in
Snow Depth Not available.
7:05 AM 4:05 PM
Waxing Gibbous, 76% visible
METAR KIZG 091754Z AUTO 30009G21KT 10SM FEW038 M02/M13 A2989 RMK AO2 SLP128 T10221128 11017 21028 52004

10-Day Weather Forecast

Almanac

Astronomy

Dec. 09, 2016 Rise Set
Actual Time
Civil Twilight
Nautical Twilight
Astronomical Twilight
Moon
Length of Visible Light
Length of Day
Tomorrow will be .
, % of the Moon is Illuminated

Today's Extremes

State Highs State Lows

Community

WunderPhotos

Upload Photos

1,956,499 photos uploaded!

WunderBlog® & News

Nearby

Air Quality

  Air Quality AQ Index Pollutant
Not available.

Snow Depth

Station Depth Elevation

Earthquake Activity

City Distance Mag. Time & Date
Minimum magnitude displayed is 2.5.

Coastal Water Temperatures

Place Temperature

Stations

Nearby Weather Stations

Station Location Temp. Windchill Dew Point Humidity Wind Precip. Elev Updated Type
                   

Watches & Warnings

There are currently no watches in effect.